Time;durP1;ratioP1;P1;durP2;ratioP2;P2;SDS_P1;SDS_P2;PMS_P1;PMS_P2;Temp;Humidity;BMP_temperature;BMP_pressure;BME280_temperature;BME280_humidity;BME280_pressure;Samples;Min_cycle;Max_cycle;Signal;HPM_P1;HPM_P2
2021/03/12 00:01:53;;;;;;;5.97;1.67;;;;;;;6.35;100.00;100647.12;1757663;79;934526;-78
2021/03/12 00:04:23;;;;;;;5.07;1.53;;;;;;;6.28;100.00;100651.48;1765757;79;934670;-77
2021/03/12 00:06:53;;;;;;;7.63;1.80;;;;;;;6.29;100.00;100656.45;1757795;79;934512;-77
2021/03/12 00:09:23;;;;;;;9.80;1.80;;;;;;;6.28;100.00;100652.86;1765476;79;934728;-77
2021/03/12 00:11:53;;;;;;;9.87;1.97;;;;;;;6.38;100.00;100657.08;1757783;79;934572;-77
2021/03/12 00:14:23;;;;;;;9.90;1.50;;;;;;;6.40;100.00;100653.52;1765706;79;934446;-77
2021/03/12 00:16:54;;;;;;;7.30;1.70;;;;;;;6.39;100.00;100661.50;1757769;79;934486;-77
2021/03/12 00:19:24;;;;;;;8.13;1.60;;;;;;;6.39;100.00;100657.36;1765647;79;934533;-77
2021/03/12 00:21:53;;;;;;;6.87;1.70;;;;;;;6.44;100.00;100657.96;1757781;79;934686;-77
2021/03/12 00:24:23;;;;;;;8.50;1.27;;;;;;;6.38;100.00;100656.23;1765674;79;934699;-77
2021/03/12 00:26:58;;;;;;;8.17;1.87;;;;;;;6.37;100.00;100654.59;1757709;79;934610;-78
2021/03/12 00:29:26;;;;;;;10.63;1.80;;;;;;;6.32;100.00;100661.45;1764841;79;934576;-78
2021/03/12 00:31:57;;;;;;;5.60;1.47;;;;;;;6.42;100.00;100660.71;1757901;79;936651;-78
2021/03/12 00:34:27;;;;;;;5.53;1.80;;;;;;;6.39;100.00;100663.42;1765907;79;934671;-78
2021/03/12 00:36:57;;;;;;;7.78;1.87;;;;;;;6.28;100.00;100669.41;1758043;79;934555;-78
2021/03/12 00:39:27;;;;;;;11.40;2.03;;;;;;;6.44;100.00;100671.75;1765834;79;934487;-77
2021/03/12 00:41:57;;;;;;;6.03;1.40;;;;;;;6.36;100.00;100666.17;1758193;79;936482;-77
2021/03/12 00:44:27;;;;;;;7.57;2.00;;;;;;;6.38;100.00;100666.73;1765901;79;934516;-78
2021/03/12 00:46:57;;;;;;;8.73;2.25;;;;;;;6.30;100.00;100668.59;1757958;79;934684;-78
2021/03/12 00:49:28;;;;;;;7.20;2.23;;;;;;;6.24;100.00;100669.66;1765982;79;934582;-77
2021/03/12 00:51:57;;;;;;;11.08;2.12;;;;;;;6.16;100.00;100672.85;1757920;78;934689;-77
2021/03/12 00:54:27;;;;;;;6.93;1.97;;;;;;;6.27;100.00;100671.88;1765663;79;936634;-78
2021/03/12 00:56:57;;;;;;;8.53;2.00;;;;;;;6.26;100.00;100675.72;1758048;79;934459;-78
2021/03/12 00:59:27;;;;;;;8.17;1.63;;;;;;;6.35;100.00;100666.42;1766179;79;934735;-78
2021/03/12 01:01:57;;;;;;;8.55;1.70;;;;;;;6.35;100.00;100669.19;1757809;79;934575;-78
2021/03/12 01:04:27;;;;;;;7.13;1.50;;;;;;;6.41;100.00;100669.53;1765813;79;934495;-78
2021/03/12 01:06:57;;;;;;;10.37;1.93;;;;;;;6.34;100.00;100664.75;1758124;79;934424;-78
2021/03/12 01:09:26;;;;;;;8.70;1.70;;;;;;;6.28;100.00;100668.03;1765680;79;936805;-78
2021/03/12 01:11:56;;;;;;;6.55;2.08;;;;;;;6.39;100.00;100669.78;1758068;79;934637;-77
2021/03/12 01:14:27;;;;;;;8.97;1.97;;;;;;;6.36;100.00;100670.31;1765774;79;934490;-78
2021/03/12 01:16:57;;;;;;;8.23;1.97;;;;;;;6.31;100.00;100666.12;1757879;79;934441;-78
2021/03/12 01:19:27;;;;;;;8.13;2.20;;;;;;;6.32;100.00;100670.55;1765794;79;934608;-78
2021/03/12 01:21:57;;;;;;;7.45;2.08;;;;;;;6.13;100.00;100669.79;1757928;79;934541;-78
2021/03/12 01:24:27;;;;;;;6.23;1.73;;;;;;;6.24;100.00;100674.33;1765731;79;934533;-78
2021/03/12 01:26:58;;;;;;;8.00;2.05;;;;;;;6.26;100.00;100672.97;1757826;79;934419;-77
2021/03/12 01:29:28;;;;;;;11.00;2.10;;;;;;;6.14;100.00;100670.92;1766048;79;934491;-77
2021/03/12 01:31:58;;;;;;;9.57;2.07;;;;;;;6.21;100.00;100674.29;1758044;79;936563;-77
2021/03/12 01:34:28;;;;;;;10.47;2.07;;;;;;;6.20;100.00;100669.89;1765986;79;934627;-77
2021/03/12 01:36:58;;;;;;;7.97;2.00;;;;;;;6.28;100.00;100671.34;1757812;79;935934;-77
2021/03/12 01:39:28;;;;;;;9.23;2.33;;;;;;;6.23;100.00;100674.04;1765910;79;934721;-77
2021/03/12 01:41:58;;;;;;;11.77;2.13;;;;;;;6.14;100.00;100677.81;1758654;79;934433;-77
2021/03/12 01:44:29;;;;;;;9.37;2.43;;;;;;;6.19;100.00;100670.14;1766381;79;936502;-77
2021/03/12 01:46:59;;;;;;;12.82;1.92;;;;;;;6.12;100.00;100671.71;1758113;79;934545;-77
2021/03/12 01:49:29;;;;;;;10.00;2.00;;;;;;;6.05;100.00;100662.83;1767497;79;936533;-77
2021/03/12 01:51:59;;;;;;;10.05;2.02;;;;;;;6.03;100.00;100673.30;1759084;78;937135;-77
2021/03/12 01:54:29;;;;;;;9.93;2.50;;;;;;;5.84;100.00;100656.78;1765580;79;936556;-77
2021/03/12 01:56:59;;;;;;;13.67;2.23;;;;;;;5.90;100.00;100663.48;1757909;79;934465;-77
2021/03/12 01:59:28;;;;;;;11.03;3.03;;;;;;;6.01;100.00;100658.92;1765757;79;936612;-77
2021/03/12 02:01:59;;;;;;;6.17;1.67;;;;;;;6.02;100.00;100661.98;1757671;79;937061;-77
2021/03/12 02:04:29;;;;;;;10.53;2.50;;;;;;;5.91;100.00;100658.27;1765994;79;934476;-76
2021/03/12 02:06:59;;;;;;;10.60;1.70;;;;;;;5.99;100.00;100653.40;1757820;79;936620;-76
2021/03/12 02:09:29;;;;;;;8.47;2.60;;;;;;;5.95;100.00;100648.38;1765775;79;936825;-76
2021/03/12 02:12:03;;;;;;;11.33;2.37;;;;;;;5.95;100.00;100647.55;1757891;79;934436;-76
2021/03/12 02:14:37;;;;;;;9.20;2.03;;;;;;;5.97;100.00;100641.78;1765727;79;936760;-76
2021/03/12 02:17:11;;;;;;;8.10;2.37;;;;;;;6.03;100.00;100644.35;1758002;79;933351;-76
2021/03/12 02:19:54;;;;;;;8.03;2.10;;;;;;;6.03;100.00;100643.52;1765796;79;932594;-77
2021/03/12 02:22:25;;;;;;;9.83;2.33;;;;;;;5.96;100.00;100638.19;1767183;79;934430;-76
2021/03/12 02:24:59;;;;;;;12.03;2.50;;;;;;;5.91;100.00;100628.48;1754388;79;933445;-76
2021/03/12 02:27:29;;;;;;;12.03;2.13;;;;;;;6.02;100.00;100623.37;1769570;79;936712;-76
2021/03/12 02:30:01;;;;;;;8.63;2.27;;;;;;;6.02;100.00;100623.92;1754050;79;936590;-76
2021/03/12 02:32:33;;;;;;;10.43;2.47;;;;;;;6.00;100.00;100620.03;1769303;79;934461;-77
2021/03/12 02:35:07;;;;;;;12.50;2.30;;;;;;;6.03;100.00;100604.91;1754280;79;936729;-77
2021/03/12 02:37:38;;;;;;;10.23;2.13;;;;;;;6.08;100.00;100598.88;1769296;79;934690;-77
2021/03/12 02:40:13;;;;;;;9.70;2.50;;;;;;;6.09;100.00;100592.82;1754487;79;936605;-77
2021/03/12 02:42:45;;;;;;;11.73;2.57;;;;;;;6.08;100.00;100596.66;1779332;79;932718;-77
2021/03/12 02:45:20;;;;;;;14.77;3.40;;;;;;;6.04;100.00;100588.09;1761895;79;936746;-77
2021/03/12 02:47:51;;;;;;;8.90;1.90;;;;;;;6.10;100.00;100580.70;1764526;80;935140;-77
2021/03/12 02:50:22;;;;;;;10.77;1.93;;;;;;;6.00;100.00;100567.66;1769297;79;934791;-77
2021/03/12 02:52:53;;;;;;;12.83;2.73;;;;;;;6.09;100.00;100567.47;1754137;79;936574;-77
2021/03/12 02:55:23;;;;;;;17.43;3.53;;;;;;;6.06;100.00;100568.54;1769377;79;935442;-77
2021/03/12 02:57:54;;;;;;;19.93;3.00;;;;;;;6.01;100.00;100568.49;1754124;79;936666;-77
2021/03/12 03:00:24;;;;;;;8.57;1.77;;;;;;;6.02;100.00;100561.34;1769370;79;936672;-77
2021/03/12 03:02:55;;;;;;;10.27;2.30;;;;;;;6.07;100.00;100553.67;1754223;79;934582;-77
2021/03/12 03:05:26;;;;;;;7.63;2.03;;;;;;;5.97;100.00;100548.89;1769258;79;936672;-77
2021/03/12 03:07:57;;;;;;;9.28;1.87;;;;;;;6.17;100.00;100549.59;1754178;79;934544;-76
2021/03/12 03:10:28;;;;;;;14.77;2.20;;;;;;;6.17;100.00;100544.08;1769291;79;934510;-76
2021/03/12 03:12:58;;;;;;;10.98;2.52;;;;;;;6.20;100.00;100536.69;1754100;79;936608;-76
2021/03/12 03:15:45;;;;;;;9.53;1.83;;;;;;;6.07;100.00;100528.31;1706722;82;934791;-77
2021/03/12 03:18:15;;;;;;;8.87;2.10;;;;;;;6.13;100.00;100535.52;1691963;82;934574;-77
2021/03/12 03:20:46;;;;;;;6.40;2.13;;;;;;;6.11;100.00;100534.95;1691946;83;932729;-76
2021/03/12 03:23:16;;;;;;;11.70;2.20;;;;;;;6.15;100.00;100528.36;1692017;83;934615;-77
2021/03/12 03:25:46;;;;;;;8.90;2.95;;;;;;;6.19;100.00;100526.19;1692055;83;934766;-77
2021/03/12 03:28:16;;;;;;;16.60;2.67;;;;;;;6.30;100.00;100530.67;1691983;83;934533;-77
2021/03/12 03:30:45;;;;;;;7.23;1.87;;;;;;;6.29;100.00;100533.14;1692173;82;934796;-77
2021/03/12 03:33:15;;;;;;;8.67;1.73;;;;;;;6.29;100.00;100531.77;1692030;83;934885;-77
2021/03/12 03:35:45;;;;;;;12.50;2.60;;;;;;;6.27;100.00;100524.33;1691943;82;932758;-77
2021/03/12 03:38:17;;;;;;;7.13;2.07;;;;;;;6.31;100.00;100520.48;1691999;83;936676;-77
2021/03/12 03:40:47;;;;;;;9.60;2.50;;;;;;;6.39;100.00;100518.05;1692050;82;932662;-77
2021/03/12 03:43:19;;;;;;;14.53;2.93;;;;;;;6.43;100.00;100508.69;1692083;82;934732;-77
2021/03/12 03:45:50;;;;;;;9.63;2.40;;;;;;;6.43;100.00;100514.76;1691935;82;934794;-77
2021/03/12 03:48:22;;;;;;;10.78;2.35;;;;;;;6.46;100.00;100504.59;1750097;79;934515;-77
2021/03/12 03:50:53;;;;;;;10.37;2.57;;;;;;;6.47;100.00;100504.84;1751648;79;936707;-77
2021/03/12 03:53:23;;;;;;;10.57;2.33;;;;;;;6.44;100.00;100508.98;1763069;79;936629;-77
2021/03/12 03:55:54;;;;;;;9.37;2.20;;;;;;;6.53;100.00;100505.17;1751646;79;936540;-77
2021/03/12 03:58:25;;;;;;;11.77;2.27;;;;;;;6.59;100.00;100495.27;1763367;79;934648;-77
2021/03/12 04:00:55;;;;;;;11.00;2.10;;;;;;;6.56;100.00;100486.15;1751501;79;936554;-77
2021/03/12 04:03:26;;;;;;;10.53;2.50;;;;;;;6.61;100.00;100499.14;1763101;79;936790;-77
2021/03/12 04:05:58;;;;;;;10.15;2.25;;;;;;;6.71;100.00;100492.31;1751579;79;937607;-77
2021/03/12 04:08:30;;;;;;;9.50;2.27;;;;;;;6.75;100.00;100492.05;1763017;79;936746;-77
2021/03/12 04:11:01;;;;;;;11.80;2.57;;;;;;;6.76;100.00;100490.96;1751831;79;934780;-77
2021/03/12 04:13:32;;;;;;;7.35;1.67;;;;;;;6.78;100.00;100491.51;1763258;79;936621;-76
2021/03/12 04:16:02;;;;;;;19.73;3.52;;;;;;;6.79;100.00;100488.48;1751898;79;934482;-76
2021/03/12 04:18:33;;;;;;;15.17;3.77;;;;;;;6.83;100.00;100478.56;1763206;79;936629;-76
2021/03/12 04:21:03;;;;;;;9.43;2.77;;;;;;;6.94;100.00;100479.97;1751742;79;936692;-76
2021/03/12 04:23:34;;;;;;;11.97;2.50;;;;;;;6.90;100.00;100485.20;1763307;79;934563;-77
2021/03/12 04:26:04;;;;;;;16.35;3.05;;;;;;;6.96;100.00;100478.61;1751669;79;936669;-77
2021/03/12 04:28:35;;;;;;;9.67;3.00;;;;;;;6.99;100.00;100469.78;1763357;79;936568;-78
2021/03/12 04:31:05;;;;;;;10.77;2.40;;;;;;;7.05;100.00;100475.61;1752076;79;934580;-78
2021/03/12 04:33:36;;;;;;;14.70;3.07;;;;;;;6.96;100.00;100459.84;1763301;79;936569;-77
2021/03/12 04:36:07;;;;;;;14.50;2.90;;;;;;;7.01;100.00;100460.69;1751933;79;936575;-77
2021/03/12 04:38:39;;;;;;;9.37;2.20;;;;;;;7.05;100.00;100460.43;1763286;79;934863;-77
2021/03/12 04:41:10;;;;;;;13.73;2.87;;;;;;;7.03;100.00;100459.02;1751949;79;934543;-78
2021/03/12 04:43:42;;;;;;;12.83;2.63;;;;;;;7.08;100.00;100449.38;1763237;79;934687;-76
2021/03/12 04:46:13;;;;;;;10.87;1.90;;;;;;;7.04;100.00;100442.19;1751834;79;936605;-77
2021/03/12 04:48:44;;;;;;;12.73;3.17;;;;;;;7.17;100.00;100446.36;1763323;79;934994;-77
2021/03/12 04:51:15;;;;;;;9.97;2.27;;;;;;;7.24;100.00;100444.16;1751639;79;936549;-77
2021/03/12 04:53:45;;;;;;;10.43;2.23;;;;;;;7.33;100.00;100434.23;1763407;79;932706;-77
2021/03/12 04:56:16;;;;;;;9.58;2.20;;;;;;;7.26;100.00;100426.78;1750174;79;1027051;-77
2021/03/12 04:58:46;;;;;;;11.40;2.13;;;;;;;7.29;100.00;100427.60;1763412;79;934687;-77
2021/03/12 05:01:16;;;;;;;9.10;2.07;;;;;;;7.38;100.00;100437.56;1751541;79;936543;-77
2021/03/12 05:03:46;;;;;;;8.70;1.80;;;;;;;7.44;100.00;100422.11;1763049;79;932583;-77
2021/03/12 05:06:17;;;;;;;11.27;2.20;;;;;;;7.38;100.00;100428.72;1763256;79;934460;-77
2021/03/12 05:08:48;;;;;;;10.23;2.13;;;;;;;7.43;100.00;100432.05;1763286;79;934756;-77
2021/03/12 05:11:20;;;;;;;8.23;1.93;;;;;;;7.33;100.00;100424.56;1763322;79;936693;-78
2021/03/12 05:13:52;;;;;;;9.20;1.97;;;;;;;7.20;100.00;100416.27;1762857;79;934519;-78
2021/03/12 05:16:22;;;;;;;10.80;1.90;;;;;;;7.28;100.00;100417.09;1762813;79;934833;-78
2021/03/12 05:18:52;;;;;;;10.03;2.50;;;;;;;7.27;100.00;100418.20;1751650;79;936802;-78
2021/03/12 05:21:22;;;;;;;5.93;1.40;;;;;;;7.27;100.00;100415.44;1763274;79;936768;-78
2021/03/12 05:23:52;;;;;;;10.50;1.53;;;;;;;7.22;100.00;100415.45;1751858;79;933305;-78
2021/03/12 05:26:22;;;;;;;8.90;2.37;;;;;;;7.11;100.00;100423.42;1763392;79;937028;-78
2021/03/12 05:28:53;;;;;;;8.50;1.83;;;;;;;7.06;100.00;100419.84;1751946;79;934568;-78
2021/03/12 05:31:25;;;;;;;7.60;1.80;;;;;;;7.17;100.00;100412.67;1763503;79;934439;-77
2021/03/12 05:33:56;;;;;;;7.37;2.47;;;;;;;7.14;100.00;100404.95;1751805;79;934553;-78
2021/03/12 05:36:26;;;;;;;6.22;1.70;;;;;;;7.02;100.00;100402.96;1763347;79;934609;-76
2021/03/12 05:38:55;;;;;;;9.53;1.52;;;;;;;6.99;100.00;100402.69;1751792;79;934478;-76
2021/03/12 05:41:26;;;;;;;11.37;2.30;;;;;;;7.04;100.00;100417.89;1763309;79;934726;-76
2021/03/12 05:43:59;;;;;;;8.48;1.80;;;;;;;6.93;100.00;100418.97;1751460;79;936608;-76
2021/03/12 05:46:29;;;;;;;12.20;2.27;;;;;;;7.12;100.00;100420.95;1763258;79;934487;-77
2021/03/12 05:48:59;;;;;;;8.97;1.77;;;;;;;7.15;100.00;100407.96;1751730;79;936551;-77
2021/03/12 05:51:29;;;;;;;13.73;2.43;;;;;;;7.09;100.00;100415.14;1762903;79;934476;-77
2021/03/12 05:53:59;;;;;;;11.60;2.20;;;;;;;7.10;100.00;100406.56;1751639;79;946387;-77
2021/03/12 05:56:29;;;;;;;12.23;1.97;;;;;;;7.16;100.00;100394.44;1763322;79;936668;-77
2021/03/12 05:59:00;;;;;;;11.30;2.33;;;;;;;7.11;100.00;100390.83;1751806;79;936498;-77
2021/03/12 06:01:32;;;;;;;11.80;2.40;;;;;;;6.99;100.00;100400.75;1763219;79;936622;-77
2021/03/12 06:04:02;;;;;;;11.38;2.35;;;;;;;6.95;100.00;100394.67;1751879;79;936556;-77
2021/03/12 06:06:33;;;;;;;11.13;2.40;;;;;;;6.95;100.00;100405.16;1763286;79;936537;-77
2021/03/12 06:09:05;;;;;;;8.15;1.80;;;;;;;7.00;100.00;100392.76;1751806;79;936948;-77
2021/03/12 06:11:35;;;;;;;11.57;1.93;;;;;;;6.84;100.00;100392.45;1763384;79;934563;-77
2021/03/12 06:14:05;;;;;;;11.93;2.90;;;;;;;6.86;100.00;100395.75;1751881;79;936683;-76
2021/03/12 06:16:35;;;;;;;10.43;2.43;;;;;;;6.78;100.00;100388.83;1763163;79;936700;-77
2021/03/12 06:19:15;;;;;;;12.47;2.40;;;;;;;6.77;100.00;100396.83;1751786;79;936559;-77
2021/03/12 06:21:47;;;;;;;10.67;2.27;;;;;;;6.78;100.00;100394.90;1763250;79;935150;-77
2021/03/12 06:24:27;;;;;;;9.83;2.00;;;;;;;6.78;100.00;100390.76;1763254;79;936743;-77
2021/03/12 06:26:58;;;;;;;10.87;2.00;;;;;;;6.67;100.00;100392.67;1751700;79;934477;-77
2021/03/12 06:29:38;;;;;;;12.70;2.47;;;;;;;6.68;100.00;100383.27;1763239;79;936607;-77
2021/03/12 06:32:09;;;;;;;13.40;2.37;;;;;;;6.68;100.00;100385.20;1751786;79;936549;-77
2021/03/12 06:34:39;;;;;;;10.30;2.87;;;;;;;6.81;100.00;100386.90;1763160;79;934758;-78
2021/03/12 06:37:29;;;;;;;13.50;3.12;;;;;;;6.67;100.00;100383.56;1751771;79;936529;-78
2021/03/12 06:39:59;;;;;;;11.38;2.47;;;;;;;6.83;100.00;100385.26;1751540;79;936549;-78
2021/03/12 06:42:29;;;;;;;13.00;2.20;;;;;;;6.87;100.00;100379.47;1763152;79;936578;-77
2021/03/12 06:45:02;;;;;;;9.43;2.10;;;;;;;6.85;100.00;100381.66;1751658;79;946311;-77
2021/03/12 06:47:32;;;;;;;10.53;2.03;;;;;;;6.80;100.00;100378.91;1763400;79;934481;-77
2021/03/12 06:50:02;;;;;;;16.23;2.93;;;;;;;6.83;100.00;100378.36;1751654;79;936470;-77
2021/03/12 06:52:37;;;;;;;8.17;2.03;;;;;;;6.85;100.00;100370.62;1763235;79;936527;-77
2021/03/12 06:55:08;;;;;;;10.33;1.83;;;;;;;7.02;100.00;100364.30;1751919;79;934564;-77
2021/03/12 06:57:39;;;;;;;5.20;1.77;;;;;;;7.12;100.00;100357.97;1763363;79;934700;-77
2021/03/12 07:00:11;;;;;;;5.47;1.52;;;;;;;7.14;100.00;100352.47;1751885;79;934560;-77
2021/03/12 07:02:40;;;;;;;9.07;1.53;;;;;;;7.23;100.00;100354.14;1763223;79;932607;-77
2021/03/12 07:05:11;;;;;;;6.73;1.63;;;;;;;7.30;100.00;100344.47;1751741;79;934548;-80
2021/03/12 07:07:42;;;;;;;8.53;1.83;;;;;;;7.37;100.00;100337.81;1763344;79;932639;-79
2021/03/12 07:10:13;;;;;;;7.13;1.53;;;;;;;7.28;100.00;100334.78;1752411;79;934499;-78
2021/03/12 07:12:47;;;;;;;11.53;1.70;;;;;;;7.29;100.00;100340.03;1763486;79;932729;-79
2021/03/12 07:15:17;;;;;;;11.10;1.70;;;;;;;7.27;100.00;100341.43;1763661;79;936574;-79
2021/03/12 07:17:48;;;;;;;10.07;2.30;;;;;;;7.35;100.00;100342.80;1763481;79;934682;-80
2021/03/12 07:20:21;;;;;;;8.68;1.82;;;;;;;7.47;100.00;100346.11;1763486;79;936787;-78
2021/03/12 07:22:51;;;;;;;8.37;1.50;;;;;;;7.47;100.00;100337.82;1752452;79;933439;-78
2021/03/12 07:25:24;;;;;;;7.13;1.37;;;;;;;7.53;100.00;100330.62;1763792;79;933683;-78
2021/03/12 07:27:57;;;;;;;7.57;1.30;;;;;;;7.51;100.00;100319.58;1752019;79;933715;-78
2021/03/12 07:30:28;;;;;;;10.90;1.93;;;;;;;7.44;100.00;100314.90;1763560;79;934396;-79
2021/03/12 07:33:00;;;;;;;4.13;1.50;;;;;;;7.54;100.00;100313.48;1751750;79;936556;-78
2021/03/12 07:35:32;;;;;;;11.37;1.93;;;;;;;7.56;100.00;100305.77;1763678;79;934392;-79
2021/03/12 07:38:05;;;;;;;8.60;2.15;;;;;;;7.62;100.00;100301.86;1751667;79;936585;-78
2021/03/12 07:40:36;;;;;;;6.53;1.60;;;;;;;7.69;100.00;100296.89;1763429;79;933373;-78
2021/03/12 07:43:08;;;;;;;9.43;1.60;;;;;;;7.76;100.00;100298.80;1751938;79;934474;-78
2021/03/12 07:45:41;;;;;;;7.20;1.73;;;;;;;7.90;100.00;100292.14;1763338;79;932579;-78
2021/03/12 07:48:11;;;;;;;7.17;1.60;;;;;;;7.90;100.00;100290.20;1751568;79;933788;-78
2021/03/12 07:50:42;;;;;;;12.23;2.27;;;;;;;7.97;100.00;100292.66;1763249;79;932748;-79
2021/03/12 07:53:12;;;;;;;6.80;2.13;;;;;;;8.15;100.00;100294.81;1751780;79;936556;-80
2021/03/12 07:55:52;;;;;;;8.20;1.98;;;;;;;8.27;100.00;100289.77;1763468;79;932532;-78
2021/03/12 07:58:57;;;;;;;6.33;1.77;;;;;;;8.34;100.00;100292.28;1763484;79;934421;-78
2021/03/12 08:01:27;;;;;;;10.07;2.37;;;;;;;8.37;100.00;100285.62;1761564;79;934441;-75
2021/03/12 08:03:57;;;;;;;9.30;2.20;;;;;;;8.34;100.00;100270.14;1751821;79;936486;-80
2021/03/12 08:06:33;;;;;;;9.20;2.23;;;;;;;8.42;100.00;100277.84;1763461;79;934453;-80
2021/03/12 08:09:03;;;;;;;13.78;2.33;;;;;;;8.39;100.00;100279.78;1752102;79;934504;-82
2021/03/12 08:11:36;;;;;;;8.27;2.00;;;;;;;8.45;100.00;100275.89;1763482;79;936639;-81
2021/03/12 08:14:16;;;;;;;11.18;3.22;;;;;;;8.45;100.00;100271.18;1751894;79;933429;-79
2021/03/12 08:17:20;;;;;;;7.83;2.10;;;;;;;8.52;100.00;100259.78;1763370;79;934852;-79
2021/03/12 08:19:50;;;;;;;13.97;2.27;;;;;;;8.53;100.00;100268.36;1763368;79;932542;-77
2021/03/12 08:22:43;;;;;;;11.73;2.67;;;;;;;8.61;100.00;100259.45;1763309;79;936467;-78
2021/03/12 08:25:35;;;;;;;14.97;2.97;;;;;;;8.61;100.00;100262.22;1751842;79;936501;-78
2021/03/12 08:28:10;;;;;;;11.85;2.27;;;;;;;8.68;100.00;100263.55;1751936;77;936690;-76
2021/03/12 08:30:48;;;;;;;10.60;2.27;;;;;;;8.66;100.00;100260.25;1760858;79;934915;-80
2021/03/12 08:33:35;;;;;;;11.83;2.37;;;;;;;8.65;100.00;100261.91;1763372;79;936615;-81
2021/03/12 08:36:07;;;;;;;9.28;2.47;;;;;;;8.78;100.00;100255.73;1751966;79;936670;-77
2021/03/12 08:38:47;;;;;;;7.77;2.27;;;;;;;8.66;100.00;100256.66;1763587;79;932578;-77
2021/03/12 08:41:23;;;;;;;12.87;2.43;;;;;;;8.58;100.00;100260.86;1763458;79;933398;-78
2021/03/12 08:43:56;;;;;;;11.60;2.17;;;;;;;8.46;100.00;100280.31;1751679;79;936776;-78
2021/03/12 08:46:30;;;;;;;8.63;2.40;;;;;;;8.34;100.00;100272.91;1763343;79;936527;-77
2021/03/12 08:49:08;;;;;;;12.83;2.30;;;;;;;8.50;100.00;100304.92;1751590;79;934560;-78
2021/03/12 08:51:39;;;;;;;5.60;1.50;;;;;;;8.29;100.00;100322.19;1763303;79;934572;-77
2021/03/12 08:54:10;;;;;;;7.47;1.90;;;;;;;7.97;100.00;100303.17;1751874;79;934346;-77
2021/03/12 08:56:40;;;;;;;4.87;1.50;;;;;;;7.83;100.00;100301.30;1763202;79;932783;-77
2021/03/12 08:59:10;;;;;;;5.50;1.80;;;;;;;7.74;100.00;100299.07;1751651;79;934586;-78
2021/03/12 09:01:40;;;;;;;6.17;1.33;;;;;;;7.68;100.00;100318.17;1763310;79;931592;-78
2021/03/12 09:04:11;;;;;;;4.70;1.33;;;;;;;7.70;100.00;100332.53;1751601;79;934387;-78
2021/03/12 09:06:40;;;;;;;6.00;1.67;;;;;;;7.71;100.00;100333.36;1763393;79;932723;-78
2021/03/12 09:09:11;;;;;;;10.93;2.37;;;;;;;7.68;100.00;100316.80;1751637;79;934556;-78
2021/03/12 09:11:41;;;;;;;5.87;1.50;;;;;;;7.72;100.00;100309.59;1763290;79;934612;-77
2021/03/12 09:14:11;;;;;;;6.27;1.80;;;;;;;7.76;100.00;100298.25;1751757;79;934577;-77
2021/03/12 09:16:42;;;;;;;6.53;1.83;;;;;;;7.79;100.00;100299.06;1763301;79;932612;-77
2021/03/12 09:19:14;;;;;;;3.50;2.20;;;;;;;7.87;100.00;100288.02;1751726;79;934462;-78
2021/03/12 09:21:44;;;;;;;5.13;2.73;;;;;;;7.94;100.00;100298.76;1763309;79;932638;-78
2021/03/12 09:24:14;;;;;;;7.53;2.30;;;;;;;7.97;100.00;100295.42;1751629;79;934369;-78
2021/03/12 09:26:45;;;;;;;6.12;2.20;;;;;;;7.96;100.00;100299.32;1763356;79;932565;-78
2021/03/12 09:29:15;;;;;;;6.80;1.97;;;;;;;8.03;100.00;100294.31;1751800;79;934475;-78
2021/03/12 09:31:45;;;;;;;5.80;2.10;;;;;;;8.10;100.00;100303.95;1763384;79;932508;-78
2021/03/12 09:34:15;;;;;;;7.23;1.57;;;;;;;8.11;100.00;100301.47;1751734;79;934448;-78
2021/03/12 09:36:47;;;;;;;8.67;1.63;;;;;;;8.30;100.00;100296.14;1763380;79;932500;-78
2021/03/12 09:39:20;;;;;;;7.37;1.97;;;;;;;8.25;100.00;100308.61;1763449;79;934500;-78
2021/03/12 09:41:55;;;;;;;6.30;1.70;;;;;;;8.25;100.00;100304.46;1760693;79;934763;-78
2021/03/12 09:44:26;;;;;;;6.93;1.20;;;;;;;8.25;100.00;100290.63;1747866;79;933521;-79
2021/03/12 09:46:58;;;;;;;5.03;1.57;;;;;;;8.40;100.00;100311.88;1751705;80;933308;-78
2021/03/12 09:49:31;;;;;;;8.40;1.40;;;;;;;8.36;100.00;100302.49;1763345;80;934630;-77
2021/03/12 09:52:04;;;;;;;6.08;0.90;;;;;;;8.42;100.00;100299.44;1751660;80;934534;-77
2021/03/12 09:54:35;;;;;;;3.87;1.10;;;;;;;8.54;100.00;100286.08;1763163;80;934407;-79
2021/03/12 09:57:07;;;;;;;4.08;0.85;;;;;;;8.53;100.00;100284.97;1751822;80;934479;-77
2021/03/12 09:59:38;;;;;;;3.05;0.80;;;;;;;8.50;100.00;100289.70;1763189;80;932498;-77
2021/03/12 10:02:10;;;;;;;2.62;0.90;;;;;;;8.58;100.00;100284.39;1753598;79;934522;-77
2021/03/12 10:04:41;;;;;;;4.27;0.80;;;;;;;8.57;100.00;100277.75;1779581;78;931632;-77
2021/03/12 10:07:13;;;;;;;3.83;0.97;;;;;;;8.66;100.00;100278.80;1768170;78;934787;-77
2021/03/12 10:09:45;;;;;;;2.00;0.93;;;;;;;8.69;100.00;100278.22;1779681;79;932624;-77
2021/03/12 10:12:20;;;;;;;3.37;0.70;;;;;;;8.66;100.00;100274.65;1779571;79;934561;-77
2021/03/12 10:14:51;;;;;;;6.33;1.00;;;;;;;8.87;100.00;100278.94;1779722;79;932596;-77
2021/03/12 10:17:22;;;;;;;4.13;1.27;;;;;;;8.87;100.00;100268.41;1779600;79;934524;-77
2021/03/12 10:19:57;;;;;;;1.93;0.73;;;;;;;8.97;100.00;100275.27;1767890;79;934459;-77
2021/03/12 10:22:29;;;;;;;3.27;0.80;;;;;;;8.96;100.00;100274.99;1779670;79;934414;-79
2021/03/12 10:25:02;;;;;;;3.57;1.07;;;;;;;9.02;100.00;100269.14;1768166;79;933329;-78
2021/03/12 10:27:34;;;;;;;2.70;1.10;;;;;;;9.04;100.00;100272.43;1779738;79;934492;-79
2021/03/12 10:30:11;;;;;;;2.98;0.80;;;;;;;9.06;100.00;100268.00;1768262;78;934564;-79
2021/03/12 10:32:44;;;;;;;5.72;1.35;;;;;;;9.07;100.00;100257.99;1779532;79;932416;-79
2021/03/12 10:35:21;;;;;;;4.17;1.20;;;;;;;9.13;100.00;100256.02;1767958;79;934551;-78
2021/03/12 10:37:52;;;;;;;6.07;1.07;;;;;;;9.11;100.00;100252.73;1774590;79;934550;-77
2021/03/12 10:40:23;;;;;;;4.43;1.00;;;;;;;9.04;100.00;100227.28;1779690;79;934548;-77
2021/03/12 10:42:54;;;;;;;4.87;1.00;;;;;;;9.36;100.00;100231.70;1768180;79;934568;-77
2021/03/12 10:45:29;;;;;;;4.43;0.93;;;;;;;9.45;100.00;100227.18;1779677;79;934507;-77
2021/03/12 10:48:01;;;;;;;3.07;0.77;;;;;;;9.58;100.00;100223.69;1767828;79;934435;-77
2021/03/12 10:50:34;;;;;;;3.20;0.90;;;;;;;9.72;100.00;100217.44;1779526;79;934448;-77
2021/03/12 10:53:14;;;;;;;2.90;0.80;;;;;;;9.84;100.00;100223.42;1768068;79;933386;-77
2021/03/12 10:55:46;;;;;;;1.57;0.70;;;;;;;9.71;100.00;100210.27;1779680;79;932488;-77
2021/03/12 10:58:25;;;;;;;4.63;1.00;;;;;;;9.56;100.00;100197.39;1779589;79;934581;-77
2021/03/12 11:01:09;;;;;;;2.97;0.80;;;;;;;9.49;100.00;100205.23;1767974;79;934469;-77
2021/03/12 11:03:41;;;;;;;3.67;1.00;;;;;;;9.57;100.00;100200.44;1779597;78;932707;-79
2021/03/12 11:06:12;;;;;;;3.97;1.00;;;;;;;9.74;100.00;100208.28;1767913;78;934518;-80
2021/03/12 11:08:43;;;;;;;2.23;0.97;;;;;;;9.72;100.00;100204.41;1779685;78;932545;-79
2021/03/12 11:11:15;;;;;;;5.83;1.23;;;;;;;9.70;100.00;100183.09;1768008;79;933429;-79
2021/03/12 11:13:45;;;;;;;3.27;0.83;;;;;;;9.67;100.00;100196.73;1779691;79;932693;-79
2021/03/12 11:16:15;;;;;;;6.10;2.20;;;;;;;9.71;100.00;100192.24;1768080;79;934373;-79
2021/03/12 11:18:45;;;;;;;4.60;1.07;;;;;;;9.84;100.00;100199.84;1779785;79;932807;-79
2021/03/12 11:21:15;;;;;;;4.23;1.00;;;;;;;9.85;100.00;100198.14;1779650;79;934539;-80
2021/03/12 11:23:46;;;;;;;4.80;1.10;;;;;;;9.98;100.00;100194.65;1779722;79;932624;-79
2021/03/12 11:26:18;;;;;;;4.73;1.17;;;;;;;10.17;100.00;100204.99;1779598;79;934453;-78
2021/03/12 11:28:48;;;;;;;4.90;1.00;;;;;;;10.05;100.00;100178.45;1779569;79;934740;-77
2021/03/12 11:31:19;;;;;;;5.03;1.10;;;;;;;10.08;100.00;100188.15;1779557;79;936598;-78
2021/03/12 11:33:49;;;;;;;4.20;1.00;;;;;;;10.01;100.00;100184.34;1779639;79;934778;-78
2021/03/12 11:36:19;;;;;;;2.37;0.80;;;;;;;10.05;100.00;100192.91;1779591;79;936495;-78